Time,TemperatureF,DewpointF,PressureIn,WindDirection,WindDirectionDegrees,WindSpeedMPH,WindSpeedGustMPH,Humidity,HourlyPrecipIn,Conditions,Clouds,dailyrainin,SoftwareType,DateUTC
2013-07-11 00:05:00,55.8,50.7,29.67,South,180,2.7,-999.0,83,-99.99,,,0.00,Acu-Link.com,2013-07-11 07:05:00,
2013-07-11 00:20:00,55.4,50.6,29.67,WNW,292,1.7,-999.0,84,-99.99,,,0.00,Acu-Link.com,2013-07-11 07:20:00,
2013-07-11 00:35:00,55.0,50.6,29.67,NW,315,2.2,-999.0,85,-99.99,,,0.00,Acu-Link.com,2013-07-11 07:35:00,
2013-07-11 00:50:00,54.9,50.5,29.67,South,180,2.7,-999.0,85,-99.99,,,0.00,Acu-Link.com,2013-07-11 07:50:00,
2013-07-11 01:05:00,54.5,50.4,29.67,SSE,157,2.7,-999.0,86,-99.99,,,0.00,Acu-Link.com,2013-07-11 08:05:00,
2013-07-11 01:21:00,54.3,50.2,29.67,ESE,112,2.7,-999.0,86,-99.99,,,0.00,Acu-Link.com,2013-07-11 08:21:00,
2013-07-11 01:36:00,54.0,50.2,29.67,NW,315,0.0,-999.0,87,-99.99,,,0.00,Acu-Link.com,2013-07-11 08:36:00,
2013-07-11 01:51:00,53.6,49.8,29.67,South,180,1.7,-999.0,87,-99.99,,,0.00,Acu-Link.com,2013-07-11 08:51:00,
2013-07-11 02:06:00,53.2,49.7,29.67,ESE,112,2.7,-999.0,88,-99.99,,,0.00,Acu-Link.com,2013-07-11 09:06:00,
2013-07-11 02:21:00,52.9,49.4,29.67,WSW,247,2.2,-999.0,88,-99.99,,,0.00,Acu-Link.com,2013-07-11 09:21:00,
2013-07-11 02:36:00,52.7,49.2,29.66,SW,225,2.7,-999.0,88,-99.99,,,0.00,Acu-Link.com,2013-07-11 09:36:00,
2013-07-11 02:51:00,52.2,49.1,29.66,West,270,1.1,-999.0,89,-99.99,,,0.00,Acu-Link.com,2013-07-11 09:51:00,
2013-07-11 03:07:00,52.2,49.1,29.66,SW,225,0.0,-999.0,89,-99.99,,,0.00,Acu-Link.com,2013-07-11 10:07:00,
2013-07-11 03:22:00,52.2,49.1,29.66,SSW,202,3.7,-999.0,89,-99.99,,,0.00,Acu-Link.com,2013-07-11 10:22:00,
2013-07-11 03:38:00,52.2,49.1,29.66,SSE,157,4.2,-999.0,89,-99.99,,,0.00,Acu-Link.com,2013-07-11 10:38:00,
2013-07-11 03:53:00,51.6,48.5,29.67,South,180,0.0,-999.0,89,-99.99,,,0.00,Acu-Link.com,2013-07-11 10:53:00,
2013-07-11 04:08:00,51.6,48.5,29.65,WNW,292,2.7,-999.0,89,-99.99,,,0.00,Acu-Link.com,2013-07-11 11:08:00,
2013-07-11 04:24:00,51.6,48.8,29.66,NNW,337,2.2,-999.0,90,-99.99,,,0.00,Acu-Link.com,2013-07-11 11:24:00,
2013-07-11 04:39:00,51.4,48.6,29.66,South,180,1.7,-999.0,90,-99.99,,,0.00,Acu-Link.com,2013-07-11 11:39:00,
2013-07-11 04:54:00,51.3,48.5,29.66,ENE,67,1.7,-999.0,90,-99.99,,,0.00,Acu-Link.com,2013-07-11 11:54:00,
2013-07-11 05:10:00,50.9,48.4,29.66,SSW,202,2.2,-999.0,91,-99.99,,,0.00,Acu-Link.com,2013-07-11 12:10:00,
2013-07-11 05:25:00,50.9,48.4,29.66,South,180,0.0,-999.0,91,-99.99,,,0.00,Acu-Link.com,2013-07-11 12:25:00,
2013-07-11 05:40:00,50.7,48.2,29.66,North,0,2.2,-999.0,91,-99.99,,,0.00,Acu-Link.com,2013-07-11 12:40:00,
2013-07-11 05:55:00,50.9,48.4,29.66,WSW,247,1.1,-999.0,91,-99.99,,,0.00,Acu-Link.com,2013-07-11 12:55:00,
2013-07-11 06:11:00,50.9,48.4,29.67,ENE,67,2.2,-999.0,91,-99.99,,,0.00,Acu-Link.com,2013-07-11 13:11:00,
2013-07-11 06:26:00,51.6,49.1,29.67,NNW,337,2.7,-999.0,91,-99.99,,,0.00,Acu-Link.com,2013-07-11 13:26:00,
2013-07-11 06:42:00,52.0,49.2,29.67,South,180,3.7,-999.0,90,-99.99,,,0.00,Acu-Link.com,2013-07-11 13:42:00,
2013-07-11 06:57:00,52.5,49.4,29.67,NNW,337,3.2,-999.0,89,-99.99,,,0.00,Acu-Link.com,2013-07-11 13:57:00,
2013-07-11 07:27:00,54.9,50.8,29.68,WNW,292,1.7,-999.0,86,-99.99,,,0.00,Acu-Link.com,2013-07-11 14:27:00,
2013-07-11 07:58:00,57.2,51.1,29.67,SSE,157,4.2,-999.0,80,-99.99,,,0.00,Acu-Link.com,2013-07-11 14:58:00,
2013-07-11 08:13:00,57.6,50.8,29.67,SSW,202,3.2,-999.0,78,-99.99,,,0.00,Acu-Link.com,2013-07-11 15:13:00,
2013-07-11 08:28:00,58.8,51.6,29.68,West,270,2.7,-999.0,77,-99.99,,,0.00,Acu-Link.com,2013-07-11 15:28:00,
2013-07-11 08:44:00,59.5,51.6,29.68,East,90,3.7,-999.0,75,-99.99,,,0.00,Acu-Link.com,2013-07-11 15:44:00,
2013-07-11 08:59:00,60.6,51.5,29.68,NW,315,3.2,-999.0,72,-99.99,,,0.00,Acu-Link.com,2013-07-11 15:59:00,
2013-07-11 09:14:00,62.2,51.9,29.68,West,270,3.2,-999.0,69,-99.99,,,0.00,Acu-Link.com,2013-07-11 16:14:00,
2013-07-11 09:29:00,63.5,52.3,29.68,SSE,157,3.2,-999.0,67,-99.99,,,0.00,Acu-Link.com,2013-07-11 16:29:00,
2013-07-11 09:45:00,65.3,52.8,29.68,SW,225,4.7,-999.0,64,-99.99,,,0.00,Acu-Link.com,2013-07-11 16:45:00,
2013-07-11 10:15:00,67.3,53.4,29.68,SSE,157,2.2,-999.0,61,-99.99,,,0.00,Acu-Link.com,2013-07-11 17:15:00,
2013-07-11 11:01:00,69.6,53.7,29.67,West,270,1.7,-999.0,57,-99.99,,,0.00,Acu-Link.com,2013-07-11 18:01:00,
2013-07-11 11:32:00,72.3,54.7,29.68,West,270,2.2,-999.0,54,-99.99,,,0.00,Acu-Link.com,2013-07-11 18:32:00,
2013-07-11 11:47:00,72.9,55.3,29.67,SW,225,8.3,-999.0,54,-99.99,,,0.00,Acu-Link.com,2013-07-11 18:47:00,
2013-07-11 12:02:00,74.8,56.0,29.67,ENE,67,4.7,-999.0,52,-99.99,,,0.00,Acu-Link.com,2013-07-11 19:02:00,
2013-07-11 12:18:00,75.4,56.0,29.67,NW,315,4.7,-999.0,51,-99.99,,,0.00,Acu-Link.com,2013-07-11 19:18:00,
2013-07-11 12:33:00,76.5,56.5,29.67,West,270,3.2,-999.0,50,-99.99,,,0.00,Acu-Link.com,2013-07-11 19:33:00,
2013-07-11 12:48:00,76.8,56.7,29.66,West,270,3.7,-999.0,50,-99.99,,,0.00,Acu-Link.com,2013-07-11 19:48:00,
2013-07-11 13:03:00,77.0,56.4,29.66,SE,135,2.2,-999.0,49,-99.99,,,0.00,Acu-Link.com,2013-07-11 20:03:00,
2013-07-11 13:19:00,79.9,57.2,29.66,SE,135,5.3,-999.0,46,-99.99,,,0.00,Acu-Link.com,2013-07-11 20:19:00,
2013-07-11 13:34:00,80.1,58.6,29.65,SW,225,5.3,-999.0,48,-99.99,,,0.00,Acu-Link.com,2013-07-11 20:34:00,
2013-07-11 14:05:00,81.3,57.3,29.64,SSW,202,3.7,-999.0,44,-99.99,,,0.00,Acu-Link.com,2013-07-11 21:05:00,
2013-07-11 14:20:00,81.7,57.6,29.64,SSW,202,2.7,-999.0,44,-99.99,,,0.00,Acu-Link.com,2013-07-11 21:20:00,
2013-07-11 14:50:00,81.5,58.1,29.63,ESE,112,1.7,-999.0,45,-99.99,,,0.00,Acu-Link.com,2013-07-11 21:50:00,
2013-07-11 15:06:00,81.1,58.3,29.63,West,270,2.7,-999.0,46,-99.99,,,0.00,Acu-Link.com,2013-07-11 22:06:00,
2013-07-11 15:21:00,81.5,58.1,29.62,NNE,22,3.7,-999.0,45,-99.99,,,0.00,Acu-Link.com,2013-07-11 22:21:00,
2013-07-11 15:36:00,82.4,57.6,29.62,South,180,4.2,-999.0,43,-99.99,,,0.00,Acu-Link.com,2013-07-11 22:36:00,
2013-07-11 16:22:00,81.7,57.0,29.61,East,90,1.7,-999.0,43,-99.99,,,0.00,Acu-Link.com,2013-07-11 23:22:00,
2013-07-11 16:37:00,81.5,56.8,29.61,East,90,3.7,-999.0,43,-99.99,,,0.00,Acu-Link.com,2013-07-11 23:37:00,
2013-07-11 16:52:00,81.3,56.6,29.60,NNW,337,3.7,-999.0,43,-99.99,,,0.00,Acu-Link.com,2013-07-11 23:52:00,
2013-07-11 17:08:00,81.0,57.6,29.60,East,90,2.7,-999.0,45,-99.99,,,0.00,Acu-Link.com,2013-07-12 00:08:00,
2013-07-11 17:38:00,81.0,56.4,29.60,East,90,2.2,-999.0,43,-99.99,,,0.00,Acu-Link.com,2013-07-12 00:38:00,
2013-07-11 18:09:00,77.9,56.0,29.59,SSE,157,2.2,-999.0,47,-99.99,,,0.00,Acu-Link.com,2013-07-12 01:09:00,
2013-07-11 18:24:00,77.0,55.2,29.60,ESE,112,2.2,-999.0,47,-99.99,,,0.00,Acu-Link.com,2013-07-12 01:24:00,
2013-07-11 18:40:00,75.9,54.8,29.59,ESE,112,2.7,-999.0,48,-99.99,,,0.00,Acu-Link.com,2013-07-12 01:40:00,
2013-07-11 18:55:00,74.3,54.4,29.60,ESE,112,2.2,-999.0,50,-99.99,,,0.00,Acu-Link.com,2013-07-12 01:55:00,
2013-07-11 19:10:00,70.3,54.8,29.59,ENE,67,6.3,-999.0,58,-99.99,,,0.00,Acu-Link.com,2013-07-12 02:10:00,
2013-07-11 19:26:00,70.0,54.5,29.60,SSE,157,0.0,-999.0,58,-99.99,,,0.00,Acu-Link.com,2013-07-12 02:26:00,
2013-07-11 19:41:00,65.7,54.8,29.60,West,270,1.7,-999.0,68,-99.99,,,0.00,Acu-Link.com,2013-07-12 02:41:00,
2013-07-11 20:27:00,60.8,53.2,29.61,ENE,67,1.7,-999.0,76,-99.99,,,0.00,Acu-Link.com,2013-07-12 03:27:00,
2013-07-11 20:42:00,59.7,53.2,29.60,East,90,2.7,-999.0,79,-99.99,,,0.00,Acu-Link.com,2013-07-12 03:42:00,
2013-07-11 20:57:00,59.7,53.2,29.61,NNW,337,3.2,-999.0,79,-99.99,,,0.00,Acu-Link.com,2013-07-12 03:57:00,
2013-07-11 21:12:00,58.6,52.8,29.62,South,180,2.7,-999.0,81,-99.99,,,0.00,Acu-Link.com,2013-07-12 04:12:00,
2013-07-11 21:28:00,57.9,52.8,29.62,NE,45,2.7,-999.0,83,-99.99,,,0.00,Acu-Link.com,2013-07-12 04:28:00,
2013-07-11 21:43:00,57.2,52.7,29.63,East,90,5.8,-999.0,85,-99.99,,,0.00,Acu-Link.com,2013-07-12 04:43:00,
2013-07-11 21:58:00,56.8,52.7,29.64,East,90,4.2,-999.0,86,-99.99,,,0.00,Acu-Link.com,2013-07-12 04:58:00,
2013-07-11 22:13:00,56.7,52.6,29.64,WNW,292,3.7,-999.0,86,-99.99,,,0.00,Acu-Link.com,2013-07-12 05:13:00,
2013-07-11 22:29:00,56.3,52.5,29.64,South,180,2.2,-999.0,87,-99.99,,,0.00,Acu-Link.com,2013-07-12 05:29:00,
2013-07-11 22:44:00,56.1,52.6,29.64,South,180,3.7,-999.0,88,-99.99,,,0.00,Acu-Link.com,2013-07-12 05:44:00,
2013-07-11 22:59:00,55.9,52.4,29.65,North,0,3.2,-999.0,88,-99.99,,,0.00,Acu-Link.com,2013-07-12 05:59:00,
2013-07-11 23:14:00,55.9,52.4,29.65,NW,315,2.7,-999.0,88,-99.99,,,0.00,Acu-Link.com,2013-07-12 06:14:00,
2013-07-11 23:30:00,55.8,52.3,29.65,West,270,3.7,-999.0,88,-99.99,,,0.00,Acu-Link.com,2013-07-12 06:30:00,
2013-07-11 23:45:00,55.6,52.1,29.65,South,180,2.2,-999.0,88,-99.99,,,0.00,Acu-Link.com,2013-07-12 06:45:00,